sensor_id;sensor_type;location;lat;lon;timestamp;temperature;humidity
17529;DHT22;8882;53.192;8.184;2023-07-22T07:01:23;15.70;99.90
17529;DHT22;8882;53.192;8.184;2023-07-22T07:03:48;15.80;99.90
17529;DHT22;8882;53.192;8.184;2023-07-22T07:06:14;15.70;99.90
17529;DHT22;8882;53.192;8.184;2023-07-22T07:08:39;15.60;99.90
17529;DHT22;8882;53.192;8.184;2023-07-22T07:11:05;15.70;99.90
17529;DHT22;8882;53.192;8.184;2023-07-22T07:13:31;15.90;99.90
17529;DHT22;8882;53.192;8.184;2023-07-22T07:15:57;16.00;99.90
17529;DHT22;8882;53.192;8.184;2023-07-22T07:18:42;16.10;99.90
17529;DHT22;8882;53.192;8.184;2023-07-22T07:21:07;16.30;1.00
17529;DHT22;8882;53.192;8.184;2023-07-22T07:23:33;16.40;10.40
17529;DHT22;8882;53.192;8.184;2023-07-22T07:25:58;16.60;1.00
17529;DHT22;8882;53.192;8.184;2023-07-22T07:28:24;16.70;1.00
17529;DHT22;8882;53.192;8.184;2023-07-22T07:30:49;16.60;1.00
17529;DHT22;8882;53.192;8.184;2023-07-22T07:33:16;16.50;1.00
17529;DHT22;8882;53.192;8.184;2023-07-22T07:35:46;16.70;1.00
17529;DHT22;8882;53.192;8.184;2023-07-22T07:38:12;16.90;1.00
17529;DHT22;8882;53.192;8.184;2023-07-22T07:40:37;17.10;1.00
17529;DHT22;8882;53.192;8.184;2023-07-22T07:43:03;17.10;1.00
17529;DHT22;8882;53.192;8.184;2023-07-22T07:45:28;17.30;1.00
17529;DHT22;8882;53.192;8.184;2023-07-22T07:47:54;17.50;1.00
17529;DHT22;8882;53.192;8.184;2023-07-22T07:50:19;17.30;1.00
17529;DHT22;8882;53.192;8.184;2023-07-22T07:52:45;17.50;1.00
17529;DHT22;8882;53.192;8.184;2023-07-22T07:55:10;17.80;1.00
17529;DHT22;8882;53.192;8.184;2023-07-22T07:57:36;17.80;1.00
17529;DHT22;8882;53.192;8.184;2023-07-22T08:00:02;17.90;1.00
17529;DHT22;8882;53.192;8.184;2023-07-22T08:02:28;17.90;1.00
17529;DHT22;8882;53.192;8.184;2023-07-22T08:04:54;18.20;1.00
17529;DHT22;8882;53.192;8.184;2023-07-22T08:07:19;18.40;1.00
17529;DHT22;8882;53.192;8.184;2023-07-22T08:09:47;18.50;1.00
17529;DHT22;8882;53.192;8.184;2023-07-22T08:12:15;18.30;1.00
17529;DHT22;8882;53.192;8.184;2023-07-22T08:14:41;18.50;1.00
17529;DHT22;8882;53.192;8.184;2023-07-22T08:17:07;18.60;1.00
17529;DHT22;8882;53.192;8.184;2023-07-22T08:19:32;18.70;1.00
17529;DHT22;8882;53.192;8.184;2023-07-22T08:21:58;18.60;1.00
17529;DHT22;8882;53.192;8.184;2023-07-22T08:24:23;18.70;1.00
17529;DHT22;8882;53.192;8.184;2023-07-22T08:26:49;18.60;1.00
17529;DHT22;8882;53.192;8.184;2023-07-22T08:29:14;18.70;1.00
17529;DHT22;8882;53.192;8.184;2023-07-22T08:31:40;18.80;1.00
17529;DHT22;8882;53.192;8.184;2023-07-22T08:34:06;18.90;1.00
17529;DHT22;8882;53.192;8.184;2023-07-22T08:36:31;18.90;1.00
17529;DHT22;8882;53.192;8.184;2023-07-22T08:38:57;19.00;1.00
17529;DHT22;8882;53.192;8.184;2023-07-22T08:41:22;18.80;1.00
17529;DHT22;8882;53.192;8.184;2023-07-22T08:43:51;18.70;1.00
17529;DHT22;8882;53.192;8.184;2023-07-22T08:46:19;18.60;1.00
17529;DHT22;8882;53.192;8.184;2023-07-22T08:48:46;18.70;1.00
17529;DHT22;8882;53.192;8.184;2023-07-22T08:51:16;18.50;1.00
17529;DHT22;8882;53.192;8.184;2023-07-22T08:53:44;18.50;1.00
17529;DHT22;8882;53.192;8.184;2023-07-22T08:56:10;18.40;1.00
17529;DHT22;8882;53.192;8.184;2023-07-22T08:58:36;18.50;1.00
17529;DHT22;8882;53.192;8.184;2023-07-22T09:01:03;18.70;1.00
17529;DHT22;8882;53.192;8.184;2023-07-22T09:03:29;18.80;1.00
17529;DHT22;8882;53.192;8.184;2023-07-22T09:05:55;19.00;1.00
17529;DHT22;8882;53.192;8.184;2023-07-22T09:08:21;19.00;1.00
17529;DHT22;8882;53.192;8.184;2023-07-22T09:10:47;19.00;1.00
17529;DHT22;8882;53.192;8.184;2023-07-22T09:13:14;18.90;1.00
17529;DHT22;8882;53.192;8.184;2023-07-22T09:15:41;18.90;1.00
17529;DHT22;8882;53.192;8.184;2023-07-22T09:18:07;18.80;1.00
17529;DHT22;8882;53.192;8.184;2023-07-22T09:20:33;19.10;1.00
17529;DHT22;8882;53.192;8.184;2023-07-22T09:23:00;19.20;1.00
17529;DHT22;8882;53.192;8.184;2023-07-22T09:25:27;19.50;1.00
17529;DHT22;8882;53.192;8.184;2023-07-22T09:27:54;19.60;1.00
17529;DHT22;8882;53.192;8.184;2023-07-22T09:32:46;19.30;1.00
17529;DHT22;8882;53.192;8.184;2023-07-22T09:35:11;19.10;1.00
17529;DHT22;8882;53.192;8.184;2023-07-22T09:37:38;19.30;1.00
17529;DHT22;8882;53.192;8.184;2023-07-22T09:40:25;19.10;1.00
17529;DHT22;8882;53.192;8.184;2023-07-22T09:42:52;19.20;1.00
17529;DHT22;8882;53.192;8.184;2023-07-22T09:45:20;19.00;1.00
17529;DHT22;8882;53.192;8.184;2023-07-22T09:47:47;19.00;1.00
17529;DHT22;8882;53.192;8.184;2023-07-22T09:50:21;18.80;1.00
17529;DHT22;8882;53.192;8.184;2023-07-22T09:52:58;19.00;1.00
17529;DHT22;8882;53.192;8.184;2023-07-22T09:55:25;19.10;1.00
17529;DHT22;8882;53.192;8.184;2023-07-22T09:58:03;19.10;1.00
17529;DHT22;8882;53.192;8.184;2023-07-22T10:00:34;19.00;1.00
17529;DHT22;8882;53.192;8.184;2023-07-22T10:03:02;18.90;1.00
17529;DHT22;8882;53.192;8.184;2023-07-22T10:05:30;18.90;1.00
17529;DHT22;8882;53.192;8.184;2023-07-22T10:07:59;18.90;1.00
17529;DHT22;8882;53.192;8.184;2023-07-22T10:10:31;18.90;1.00
17529;DHT22;8882;53.192;8.184;2023-07-22T10:12:57;19.10;1.00
17529;DHT22;8882;53.192;8.184;2023-07-22T10:15:26;19.30;1.00
17529;DHT22;8882;53.192;8.184;2023-07-22T10:17:53;19.40;1.00
17529;DHT22;8882;53.192;8.184;2023-07-22T10:20:20;19.50;1.00
17529;DHT22;8882;53.192;8.184;2023-07-22T10:22:46;19.60;1.00
17529;DHT22;8882;53.192;8.184;2023-07-22T10:25:15;19.60;1.00
17529;DHT22;8882;53.192;8.184;2023-07-22T10:27:42;19.50;1.00
17529;DHT22;8882;53.192;8.184;2023-07-22T10:30:15;19.60;1.00
17529;DHT22;8882;53.192;8.184;2023-07-22T10:32:43;19.40;1.00
17529;DHT22;8882;53.192;8.184;2023-07-22T10:35:21;19.20;1.00
17529;DHT22;8882;53.192;8.184;2023-07-22T10:37:47;19.00;1.00
17529;DHT22;8882;53.192;8.184;2023-07-22T10:40:19;19.00;1.00
17529;DHT22;8882;53.192;8.184;2023-07-22T10:43:04;19.20;1.00
17529;DHT22;8882;53.192;8.184;2023-07-22T10:45:39;19.30;1.00
17529;DHT22;8882;53.192;8.184;2023-07-22T10:53:05;19.60;1.00
17529;DHT22;8882;53.192;8.184;2023-07-22T10:55:31;19.60;1.00
17529;DHT22;8882;53.192;8.184;2023-07-22T10:58:03;19.40;1.00
17529;DHT22;8882;53.192;8.184;2023-07-22T11:00:29;19.30;1.00
17529;DHT22;8882;53.192;8.184;2023-07-22T11:03:14;19.40;1.00
17529;DHT22;8882;53.192;8.184;2023-07-22T11:05:48;19.40;1.00
17529;DHT22;8882;53.192;8.184;2023-07-22T11:08:15;19.20;1.00
17529;DHT22;8882;53.192;8.184;2023-07-22T11:10:52;19.20;1.00
17529;DHT22;8882;53.192;8.184;2023-07-22T11:13:18;19.30;1.00
17529;DHT22;8882;53.192;8.184;2023-07-22T11:15:47;19.40;1.00
17529;DHT22;8882;53.192;8.184;2023-07-22T11:18:13;19.20;1.00
17529;DHT22;8882;53.192;8.184;2023-07-22T11:20:38;19.00;1.00
17529;DHT22;8882;53.192;8.184;2023-07-22T11:23:04;18.80;1.00
17529;DHT22;8882;53.192;8.184;2023-07-22T11:25:33;18.80;1.00
17529;DHT22;8882;53.192;8.184;2023-07-22T11:27:59;18.70;1.00
17529;DHT22;8882;53.192;8.184;2023-07-22T11:30:25;18.60;1.00
17529;DHT22;8882;53.192;8.184;2023-07-22T11:32:50;18.60;1.00
17529;DHT22;8882;53.192;8.184;2023-07-22T11:35:16;18.60;1.00
17529;DHT22;8882;53.192;8.184;2023-07-22T11:37:42;18.50;1.00
17529;DHT22;8882;53.192;8.184;2023-07-22T11:40:11;18.40;1.00
17529;DHT22;8882;53.192;8.184;2023-07-22T11:42:38;18.30;1.00
17529;DHT22;8882;53.192;8.184;2023-07-22T11:45:03;18.20;1.00
17529;DHT22;8882;53.192;8.184;2023-07-22T11:47:30;18.30;1.00
17529;DHT22;8882;53.192;8.184;2023-07-22T11:49:58;18.50;1.00
17529;DHT22;8882;53.192;8.184;2023-07-22T11:52:24;18.40;1.00
17529;DHT22;8882;53.192;8.184;2023-07-22T11:54:50;18.30;1.00
17529;DHT22;8882;53.192;8.184;2023-07-22T11:57:16;18.30;1.00
17529;DHT22;8882;53.192;8.184;2023-07-22T11:59:55;18.20;1.00
17529;DHT22;8882;53.192;8.184;2023-07-22T12:02:28;18.00;28.10
17529;DHT22;8882;53.192;8.184;2023-07-22T12:05:01;17.90;99.90
17529;DHT22;8882;53.192;8.184;2023-07-22T12:07:29;17.60;99.90
17529;DHT22;8882;53.192;8.184;2023-07-22T12:09:56;17.50;99.90
17529;DHT22;8882;53.192;8.184;2023-07-22T12:12:38;17.30;99.90
17529;DHT22;8882;53.192;8.184;2023-07-22T12:17:43;17.30;99.90
17529;DHT22;8882;53.192;8.184;2023-07-22T12:20:10;17.20;99.90
17529;DHT22;8882;53.192;8.184;2023-07-22T12:22:35;17.20;99.90
17529;DHT22;8882;53.192;8.184;2023-07-22T12:25:01;17.20;99.90
17529;DHT22;8882;53.192;8.184;2023-07-22T12:27:26;17.20;99.90
17529;DHT22;8882;53.192;8.184;2023-07-22T12:29:52;17.10;99.90
17529;DHT22;8882;53.192;8.184;2023-07-22T12:32:17;17.10;99.90
17529;DHT22;8882;53.192;8.184;2023-07-22T12:34:43;16.90;99.90
17529;DHT22;8882;53.192;8.184;2023-07-22T12:37:08;16.90;99.90
17529;DHT22;8882;53.192;8.184;2023-07-22T12:39:34;16.90;99.90
17529;DHT22;8882;53.192;8.184;2023-07-22T12:41:59;16.80;99.90
17529;DHT22;8882;53.192;8.184;2023-07-22T12:44:25;16.80;99.90
17529;DHT22;8882;53.192;8.184;2023-07-22T12:46:50;16.80;99.90
17529;DHT22;8882;53.192;8.184;2023-07-22T12:49:15;16.90;99.90
17529;DHT22;8882;53.192;8.184;2023-07-22T12:51:41;17.00;99.90
17529;DHT22;8882;53.192;8.184;2023-07-22T12:54:06;17.00;99.90
17529;DHT22;8882;53.192;8.184;2023-07-22T12:56:32;16.90;99.90
17529;DHT22;8882;53.192;8.184;2023-07-22T12:58:57;17.00;99.90
17529;DHT22;8882;53.192;8.184;2023-07-22T13:01:23;17.00;99.90
17529;DHT22;8882;53.192;8.184;2023-07-22T13:03:48;17.10;99.90
17529;DHT22;8882;53.192;8.184;2023-07-22T13:06:14;17.10;99.90
17529;DHT22;8882;53.192;8.184;2023-07-22T13:08:39;17.10;99.90
17529;DHT22;8882;53.192;8.184;2023-07-22T13:11:05;17.10;99.90
17529;DHT22;8882;53.192;8.184;2023-07-22T13:13:30;17.00;99.90
17529;DHT22;8882;53.192;8.184;2023-07-22T13:15:56;17.00;99.90
17529;DHT22;8882;53.192;8.184;2023-07-22T13:18:21;17.00;99.90
17529;DHT22;8882;53.192;8.184;2023-07-22T13:20:47;16.90;99.90
17529;DHT22;8882;53.192;8.184;2023-07-22T13:23:12;16.90;99.90
17529;DHT22;8882;53.192;8.184;2023-07-22T13:25:38;17.00;99.90
17529;DHT22;8882;53.192;8.184;2023-07-22T13:28:03;16.90;99.90
17529;DHT22;8882;53.192;8.184;2023-07-22T13:30:29;16.90;99.90
17529;DHT22;8882;53.192;8.184;2023-07-22T13:32:54;16.90;99.90
17529;DHT22;8882;53.192;8.184;2023-07-22T13:35:21;16.90;99.90
17529;DHT22;8882;53.192;8.184;2023-07-22T13:37:47;16.80;99.90
17529;DHT22;8882;53.192;8.184;2023-07-22T13:40:12;16.80;99.90
17529;DHT22;8882;53.192;8.184;2023-07-22T13:42:39;16.70;99.90
17529;DHT22;8882;53.192;8.184;2023-07-22T13:45:05;16.70;99.90
17529;DHT22;8882;53.192;8.184;2023-07-22T13:47:31;16.60;99.90
17529;DHT22;8882;53.192;8.184;2023-07-22T13:49:56;16.40;99.90
17529;DHT22;8882;53.192;8.184;2023-07-22T13:52:22;16.50;99.90
17529;DHT22;8882;53.192;8.184;2023-07-22T13:54:48;16.50;99.90
17529;DHT22;8882;53.192;8.184;2023-07-22T13:57:13;16.50;99.90
17529;DHT22;8882;53.192;8.184;2023-07-22T13:59:39;16.50;99.90
17529;DHT22;8882;53.192;8.184;2023-07-22T14:02:04;16.50;99.90
17529;DHT22;8882;53.192;8.184;2023-07-22T14:04:30;16.50;99.90
17529;DHT22;8882;53.192;8.184;2023-07-22T14:06:55;16.50;99.90
17529;DHT22;8882;53.192;8.184;2023-07-22T14:09:21;16.60;99.90
17529;DHT22;8882;53.192;8.184;2023-07-22T14:11:46;16.50;99.90
17529;DHT22;8882;53.192;8.184;2023-07-22T14:14:12;16.60;99.90
17529;DHT22;8882;53.192;8.184;2023-07-22T14:16:37;16.60;99.90
17529;DHT22;8882;53.192;8.184;2023-07-22T14:19:03;16.60;99.90
17529;DHT22;8882;53.192;8.184;2023-07-22T14:21:28;16.60;99.90
17529;DHT22;8882;53.192;8.184;2023-07-22T14:23:54;16.70;99.90
17529;DHT22;8882;53.192;8.184;2023-07-22T14:26:20;16.60;99.90
17529;DHT22;8882;53.192;8.184;2023-07-22T14:28:46;16.60;99.90
17529;DHT22;8882;53.192;8.184;2023-07-22T14:31:12;16.60;99.90
17529;DHT22;8882;53.192;8.184;2023-07-22T14:33:37;16.70;99.90
17529;DHT22;8882;53.192;8.184;2023-07-22T14:36:03;16.80;99.90
17529;DHT22;8882;53.192;8.184;2023-07-22T14:38:29;16.70;99.90
17529;DHT22;8882;53.192;8.184;2023-07-22T14:40:54;16.70;99.90
17529;DHT22;8882;53.192;8.184;2023-07-22T14:43:20;16.60;99.90
17529;DHT22;8882;53.192;8.184;2023-07-22T14:45:45;16.60;99.90
17529;DHT22;8882;53.192;8.184;2023-07-22T14:48:11;16.70;99.90
17529;DHT22;8882;53.192;8.184;2023-07-22T14:50:36;16.80;99.90
17529;DHT22;8882;53.192;8.184;2023-07-22T14:53:02;16.60;99.90
17529;DHT22;8882;53.192;8.184;2023-07-22T14:55:28;16.60;99.90
17529;DHT22;8882;53.192;8.184;2023-07-22T14:57:53;16.40;99.90
17529;DHT22;8882;53.192;8.184;2023-07-22T15:00:18;16.50;99.90
17529;DHT22;8882;53.192;8.184;2023-07-22T15:02:44;16.30;99.90
17529;DHT22;8882;53.192;8.184;2023-07-22T15:05:09;16.20;99.90
17529;DHT22;8882;53.192;8.184;2023-07-22T15:07:35;16.20;99.90
17529;DHT22;8882;53.192;8.184;2023-07-22T15:10:01;16.10;99.90
17529;DHT22;8882;53.192;8.184;2023-07-22T15:12:27;16.20;99.90
17529;DHT22;8882;53.192;8.184;2023-07-22T15:14:53;16.20;99.90
17529;DHT22;8882;53.192;8.184;2023-07-22T15:17:18;16.10;99.90
17529;DHT22;8882;53.192;8.184;2023-07-22T15:19:43;16.00;99.90
17529;DHT22;8882;53.192;8.184;2023-07-22T15:22:09;16.00;99.90
17529;DHT22;8882;53.192;8.184;2023-07-22T15:24:34;16.00;99.90
17529;DHT22;8882;53.192;8.184;2023-07-22T15:27:00;16.00;99.90
17529;DHT22;8882;53.192;8.184;2023-07-22T15:29:25;15.90;99.90
17529;DHT22;8882;53.192;8.184;2023-07-22T15:31:51;15.90;99.90
17529;DHT22;8882;53.192;8.184;2023-07-22T15:34:16;15.90;99.90
17529;DHT22;8882;53.192;8.184;2023-07-22T15:36:42;15.70;99.90
17529;DHT22;8882;53.192;8.184;2023-07-22T15:39:07;15.70;99.90
17529;DHT22;8882;53.192;8.184;2023-07-22T15:41:34;15.90;99.90
17529;DHT22;8882;53.192;8.184;2023-07-22T15:43:59;15.80;99.90
17529;DHT22;8882;53.192;8.184;2023-07-22T15:46:25;15.80;99.90
17529;DHT22;8882;53.192;8.184;2023-07-22T15:48:50;15.80;99.90
17529;DHT22;8882;53.192;8.184;2023-07-22T15:51:16;15.90;99.90
17529;DHT22;8882;53.192;8.184;2023-07-22T15:53:41;16.00;99.90
17529;DHT22;8882;53.192;8.184;2023-07-22T15:56:07;16.00;99.90
17529;DHT22;8882;53.192;8.184;2023-07-22T15:58:33;16.00;99.90
17529;DHT22;8882;53.192;8.184;2023-07-22T16:00:59;16.00;99.90
17529;DHT22;8882;53.192;8.184;2023-07-22T16:03:24;15.90;99.90
17529;DHT22;8882;53.192;8.184;2023-07-22T16:05:50;15.90;99.90
17529;DHT22;8882;53.192;8.184;2023-07-22T16:08:15;15.80;99.90
17529;DHT22;8882;53.192;8.184;2023-07-22T16:10:41;15.80;99.90
17529;DHT22;8882;53.192;8.184;2023-07-22T16:13:06;15.80;99.90
17529;DHT22;8882;53.192;8.184;2023-07-22T16:15:34;15.80;99.90
17529;DHT22;8882;53.192;8.184;2023-07-22T16:18:00;15.80;99.90
17529;DHT22;8882;53.192;8.184;2023-07-22T16:20:26;15.70;99.90
17529;DHT22;8882;53.192;8.184;2023-07-22T16:22:51;15.70;99.90
17529;DHT22;8882;53.192;8.184;2023-07-22T16:25:17;15.70;99.90
17529;DHT22;8882;53.192;8.184;2023-07-22T16:27:42;15.70;99.90
17529;DHT22;8882;53.192;8.184;2023-07-22T16:30:08;15.70;99.90
17529;DHT22;8882;53.192;8.184;2023-07-22T16:32:34;15.70;99.90
17529;DHT22;8882;53.192;8.184;2023-07-22T16:35:00;15.70;99.90
17529;DHT22;8882;53.192;8.184;2023-07-22T16:37:25;15.70;99.90
17529;DHT22;8882;53.192;8.184;2023-07-22T16:39:51;15.60;99.90
17529;DHT22;8882;53.192;8.184;2023-07-22T16:42:19;15.70;99.90
17529;DHT22;8882;53.192;8.184;2023-07-22T16:44:45;15.60;99.90
17529;DHT22;8882;53.192;8.184;2023-07-22T16:47:11;15.70;99.90
17529;DHT22;8882;53.192;8.184;2023-07-22T16:49:36;15.70;99.90
17529;DHT22;8882;53.192;8.184;2023-07-22T16:52:02;15.50;99.90
17529;DHT22;8882;53.192;8.184;2023-07-22T16:54:27;15.50;99.90
17529;DHT22;8882;53.192;8.184;2023-07-22T16:56:53;15.50;99.90
17529;DHT22;8882;53.192;8.184;2023-07-22T16:59:19;15.40;99.90
17529;DHT22;8882;53.192;8.184;2023-07-22T17:01:44;15.40;99.90
17529;DHT22;8882;53.192;8.184;2023-07-22T17:04:10;15.40;99.90
17529;DHT22;8882;53.192;8.184;2023-07-22T17:06:36;15.40;99.90
17529;DHT22;8882;53.192;8.184;2023-07-22T17:09:02;15.30;99.90
17529;DHT22;8882;53.192;8.184;2023-07-22T17:11:28;15.30;99.90
17529;DHT22;8882;53.192;8.184;2023-07-22T17:13:53;15.40;99.90
17529;DHT22;8882;53.192;8.184;2023-07-22T17:16:19;15.40;99.90
17529;DHT22;8882;53.192;8.184;2023-07-22T17:18:44;15.40;99.90
17529;DHT22;8882;53.192;8.184;2023-07-22T17:21:09;15.50;99.90
17529;DHT22;8882;53.192;8.184;2023-07-22T17:23:37;15.50;99.90
17529;DHT22;8882;53.192;8.184;2023-07-22T17:26:02;15.40;99.90
17529;DHT22;8882;53.192;8.184;2023-07-22T17:28:28;15.50;99.90
17529;DHT22;8882;53.192;8.184;2023-07-22T17:31:00;15.50;99.90
17529;DHT22;8882;53.192;8.184;2023-07-22T17:33:26;15.50;99.90
17529;DHT22;8882;53.192;8.184;2023-07-22T17:35:51;15.50;99.90
17529;DHT22;8882;53.192;8.184;2023-07-22T17:38:17;15.60;99.90
17529;DHT22;8882;53.192;8.184;2023-07-22T17:40:46;15.50;99.90
17529;DHT22;8882;53.192;8.184;2023-07-22T17:43:12;15.60;99.90
17529;DHT22;8882;53.192;8.184;2023-07-22T17:45:37;15.60;99.90
17529;DHT22;8882;53.192;8.184;2023-07-22T17:48:03;15.70;99.90
17529;DHT22;8882;53.192;8.184;2023-07-22T17:50:29;15.70;99.90
17529;DHT22;8882;53.192;8.184;2023-07-22T17:52:55;15.70;99.90
17529;DHT22;8882;53.192;8.184;2023-07-22T17:55:21;15.60;99.90
17529;DHT22;8882;53.192;8.184;2023-07-22T17:57:46;15.70;99.90
17529;DHT22;8882;53.192;8.184;2023-07-22T18:00:12;15.70;99.90
17529;DHT22;8882;53.192;8.184;2023-07-22T18:02:38;15.60;99.90
17529;DHT22;8882;53.192;8.184;2023-07-22T18:05:04;15.60;99.90
17529;DHT22;8882;53.192;8.184;2023-07-22T18:07:30;15.60;99.90
17529;DHT22;8882;53.192;8.184;2023-07-22T18:09:56;15.50;99.90
17529;DHT22;8882;53.192;8.184;2023-07-22T18:12:21;15.60;99.90
17529;DHT22;8882;53.192;8.184;2023-07-22T18:14:47;15.50;99.90
17529;DHT22;8882;53.192;8.184;2023-07-22T18:17:13;15.70;99.90
17529;DHT22;8882;53.192;8.184;2023-07-22T18:19:38;15.70;99.90
17529;DHT22;8882;53.192;8.184;2023-07-22T18:22:04;15.70;99.90
17529;DHT22;8882;53.192;8.184;2023-07-22T18:24:29;15.70;99.90
17529;DHT22;8882;53.192;8.184;2023-07-22T18:26:56;15.80;99.90
17529;DHT22;8882;53.192;8.184;2023-07-22T18:29:21;15.80;99.90
17529;DHT22;8882;53.192;8.184;2023-07-22T18:31:47;15.80;99.90
17529;DHT22;8882;53.192;8.184;2023-07-22T18:34:13;15.70;99.90
17529;DHT22;8882;53.192;8.184;2023-07-22T18:36:39;15.70;99.90
17529;DHT22;8882;53.192;8.184;2023-07-22T18:39:04;15.70;99.90
17529;DHT22;8882;53.192;8.184;2023-07-22T18:41:30;15.70;99.90
17529;DHT22;8882;53.192;8.184;2023-07-22T18:43:56;15.70;99.90
17529;DHT22;8882;53.192;8.184;2023-07-22T18:46:21;15.60;99.90
17529;DHT22;8882;53.192;8.184;2023-07-22T18:48:47;15.60;99.90
17529;DHT22;8882;53.192;8.184;2023-07-22T18:51:16;15.60;99.90
17529;DHT22;8882;53.192;8.184;2023-07-22T18:53:42;15.60;99.90
17529;DHT22;8882;53.192;8.184;2023-07-22T18:56:08;15.60;99.90
17529;DHT22;8882;53.192;8.184;2023-07-22T18:58:34;15.50;99.90
17529;DHT22;8882;53.192;8.184;2023-07-22T19:01:00;15.60;99.90
17529;DHT22;8882;53.192;8.184;2023-07-22T19:03:26;15.50;99.90
17529;DHT22;8882;53.192;8.184;2023-07-22T19:05:52;15.50;99.90
17529;DHT22;8882;53.192;8.184;2023-07-22T19:08:25;15.50;99.90
17529;DHT22;8882;53.192;8.184;2023-07-22T19:10:52;15.60;99.90
17529;DHT22;8882;53.192;8.184;2023-07-22T19:13:18;15.50;99.90
17529;DHT22;8882;53.192;8.184;2023-07-22T19:15:47;15.60;99.90
17529;DHT22;8882;53.192;8.184;2023-07-22T19:18:16;15.60;99.90
17529;DHT22;8882;53.192;8.184;2023-07-22T19:20:42;15.60;99.90
17529;DHT22;8882;53.192;8.184;2023-07-22T19:23:07;15.60;99.90
17529;DHT22;8882;53.192;8.184;2023-07-22T19:25:37;15.50;99.90
17529;DHT22;8882;53.192;8.184;2023-07-22T19:28:03;15.50;99.90
17529;DHT22;8882;53.192;8.184;2023-07-22T19:30:28;15.50;99.90
17529;DHT22;8882;53.192;8.184;2023-07-22T19:32:54;15.60;99.90
17529;DHT22;8882;53.192;8.184;2023-07-22T19:35:19;15.60;99.90
17529;DHT22;8882;53.192;8.184;2023-07-22T19:37:48;15.70;99.90
17529;DHT22;8882;53.192;8.184;2023-07-22T19:40:13;15.70;99.90
17529;DHT22;8882;53.192;8.184;2023-07-22T19:42:40;15.70;99.90
17529;DHT22;8882;53.192;8.184;2023-07-22T19:45:07;15.60;99.90
17529;DHT22;8882;53.192;8.184;2023-07-22T19:47:32;15.70;99.90
17529;DHT22;8882;53.192;8.184;2023-07-22T19:49:58;15.70;99.90
17529;DHT22;8882;53.192;8.184;2023-07-22T19:52:23;15.70;99.90
17529;DHT22;8882;53.192;8.184;2023-07-22T19:54:49;15.70;99.90
17529;DHT22;8882;53.192;8.184;2023-07-22T19:57:14;15.80;99.90
17529;DHT22;8882;53.192;8.184;2023-07-22T19:59:40;15.70;99.90
17529;DHT22;8882;53.192;8.184;2023-07-22T20:02:06;15.70;99.90
17529;DHT22;8882;53.192;8.184;2023-07-22T20:04:31;15.70;99.90
17529;DHT22;8882;53.192;8.184;2023-07-22T20:06:59;15.70;99.90
17529;DHT22;8882;53.192;8.184;2023-07-22T20:09:25;15.80;99.90
17529;DHT22;8882;53.192;8.184;2023-07-22T20:11:50;15.80;99.90
17529;DHT22;8882;53.192;8.184;2023-07-22T20:14:16;15.80;99.90
17529;DHT22;8882;53.192;8.184;2023-07-22T20:16:42;15.70;99.90
17529;DHT22;8882;53.192;8.184;2023-07-22T20:19:07;15.70;99.90
17529;DHT22;8882;53.192;8.184;2023-07-22T20:21:33;15.70;99.90
17529;DHT22;8882;53.192;8.184;2023-07-22T20:23:58;15.80;99.90
17529;DHT22;8882;53.192;8.184;2023-07-22T20:26:24;15.70;99.90
17529;DHT22;8882;53.192;8.184;2023-07-22T20:28:49;15.70;99.90
17529;DHT22;8882;53.192;8.184;2023-07-22T20:31:15;15.70;99.90
17529;DHT22;8882;53.192;8.184;2023-07-22T20:33:40;15.70;99.90
17529;DHT22;8882;53.192;8.184;2023-07-22T20:36:06;15.70;99.90
17529;DHT22;8882;53.192;8.184;2023-07-22T20:38:32;15.60;99.90
17529;DHT22;8882;53.192;8.184;2023-07-22T20:41:02;15.70;99.90
17529;DHT22;8882;53.192;8.184;2023-07-22T20:43:28;15.60;99.90
17529;DHT22;8882;53.192;8.184;2023-07-22T20:45:54;15.60;99.90
17529;DHT22;8882;53.192;8.184;2023-07-22T20:48:19;15.60;99.90
17529;DHT22;8882;53.192;8.184;2023-07-22T20:50:45;15.60;99.90
17529;DHT22;8882;53.192;8.184;2023-07-22T20:53:10;15.60;99.90
17529;DHT22;8882;53.192;8.184;2023-07-22T20:55:36;15.60;99.90
17529;DHT22;8882;53.192;8.184;2023-07-22T20:58:01;15.50;99.90
